createdAt,value
2022-08-03T00:00:26.626Z,46.08
2022-08-03T00:02:54.046Z,45.66
2022-08-03T00:05:20.907Z,45.95
2022-08-03T00:07:48.428Z,45.68
2022-08-03T00:10:17.321Z,46.14
2022-08-03T00:12:44.085Z,46.64
2022-08-03T00:15:15.097Z,46.97
2022-08-03T00:17:53.515Z,47.29
2022-08-03T00:20:23.901Z,48.24
2022-08-03T00:22:51.551Z,47.84
2022-08-03T00:25:18.399Z,47.82
2022-08-03T00:27:45.479Z,47.25
2022-08-03T00:30:15.413Z,48.00
2022-08-03T00:32:45.402Z,48.09
2022-08-03T00:35:18.254Z,47.88
2022-08-03T00:37:59.461Z,48.19
2022-08-03T00:40:26.344Z,47.84
2022-08-03T00:42:56.904Z,47.28
2022-08-03T00:45:27.828Z,47.62
2022-08-03T00:47:56.136Z,47.74
2022-08-03T00:50:23.402Z,48.14
2022-08-03T00:52:50.750Z,47.50
2022-08-03T00:55:17.907Z,48.16
2022-08-03T00:57:44.768Z,48.94
2022-08-03T01:00:12.911Z,49.43
2022-08-03T01:02:39.793Z,48.25
2022-08-03T01:05:07.406Z,48.32
2022-08-03T01:07:40.401Z,47.72
2022-08-03T01:10:10.474Z,48.44
2022-08-03T01:12:44.063Z,48.88
2022-08-03T01:15:16.214Z,48.76
2022-08-03T01:17:44.027Z,48.42
2022-08-03T01:20:15.026Z,48.64
2022-08-03T01:23:01.023Z,49.14
2022-08-03T01:25:39.341Z,49.10
2022-08-03T01:28:22.311Z,49.35
2022-08-03T01:30:50.519Z,50.32
2022-08-03T01:33:19.746Z,49.96
2022-08-03T01:36:01.112Z,49.38
2022-08-03T01:38:36.703Z,49.86
2022-08-03T01:41:05.151Z,49.29
2022-08-03T01:44:27.357Z,49.48
2022-08-03T01:46:20.870Z,50.21
2022-08-03T01:48:48.959Z,49.35
2022-08-03T01:51:17.365Z,49.86
2022-08-03T01:53:44.934Z,50.57
2022-08-03T01:56:12.910Z,49.67
2022-08-03T01:58:40.409Z,50.39
2022-08-03T02:01:08.432Z,49.81
2022-08-03T02:03:59.867Z,49.96
2022-08-03T02:06:59.909Z,50.70
2022-08-03T02:09:16.638Z,51.04
2022-08-03T02:11:44.179Z,51.16
2022-08-03T02:14:12.463Z,51.29
2022-08-03T02:16:40.723Z,51.28
2022-08-03T02:19:08.243Z,51.23
2022-08-03T02:21:57.431Z,51.60
2022-08-03T02:24:24.695Z,51.17
2022-08-03T02:35:42.881Z,51.73
2022-08-03T02:38:11.722Z,52.31
2022-08-03T02:40:39.326Z,52.24
2022-08-03T02:43:08.485Z,52.15
2022-08-03T02:45:36.998Z,51.55
2022-08-03T02:48:05.511Z,52.09
2022-08-03T02:50:34.383Z,51.77
2022-08-03T02:53:02.398Z,51.79
2022-08-03T02:55:29.899Z,51.99
2022-08-03T02:57:57.385Z,51.76
2022-08-03T03:00:31.007Z,51.66
2022-08-03T03:03:00.302Z,52.45
2022-08-03T03:05:55.240Z,52.98
2022-08-03T03:08:18.850Z,52.52
2022-08-03T03:10:48.306Z,52.65
2022-08-03T03:13:15.541Z,53.00
2022-08-03T03:15:42.405Z,53.03
2022-08-03T03:18:10.134Z,53.12
2022-08-03T03:20:37.543Z,52.84
2022-08-03T03:23:04.433Z,53.67
2022-08-03T03:25:32.394Z,52.74
2022-08-03T03:28:02.507Z,53.28
2022-08-03T03:30:29.969Z,53.63
2022-08-03T03:32:57.739Z,53.99
2022-08-03T03:35:24.852Z,53.90
2022-08-03T03:37:52.022Z,53.42
2022-08-03T03:40:19.535Z,53.78
2022-08-03T03:42:46.546Z,53.99
2022-08-03T03:45:13.292Z,53.61
2022-08-03T03:47:40.049Z,53.64
2022-08-03T03:50:07.711Z,54.20
2022-08-03T03:52:34.592Z,54.96
2022-08-03T03:55:01.864Z,54.64
2022-08-03T03:57:29.456Z,54.55
2022-08-03T03:59:56.320Z,53.88
2022-08-03T04:02:23.963Z,55.32
2022-08-03T04:05:10.031Z,54.60
2022-08-03T04:08:05.675Z,54.59
2022-08-03T04:10:51.562Z,54.52
2022-08-03T04:13:18.252Z,54.86
2022-08-03T04:15:45.209Z,54.92
2022-08-03T04:18:12.696Z,55.50
2022-08-03T04:20:39.392Z,54.33
2022-08-03T04:23:13.551Z,54.57
2022-08-03T04:25:42.703Z,54.56
2022-08-03T04:28:30.871Z,55.41
2022-08-03T04:30:56.905Z,55.03
2022-08-03T04:33:25.020Z,55.28
2022-08-03T04:36:02.818Z,54.93
2022-08-03T04:38:37.075Z,54.74
2022-08-03T04:41:03.889Z,54.83
2022-08-03T04:43:30.934Z,54.93
2022-08-03T04:45:57.694Z,54.29
2022-08-03T04:48:25.023Z,55.19
2022-08-03T04:50:51.987Z,54.34
2022-08-03T04:53:19.618Z,54.26
2022-08-03T04:55:46.439Z,53.80
2022-08-03T04:58:13.803Z,54.27
2022-08-03T05:00:40.802Z,54.21
2022-08-03T05:03:20.021Z,53.76
2022-08-03T05:06:01.902Z,53.97
2022-08-03T05:08:36.283Z,54.03
2022-08-03T05:11:13.956Z,53.83
2022-08-03T05:13:40.873Z,53.16
2022-08-03T05:16:07.835Z,53.05
2022-08-03T05:18:35.994Z,52.82
2022-08-03T05:21:04.987Z,53.35
2022-08-03T05:23:31.739Z,53.26
2022-08-03T05:25:58.741Z,53.02
2022-08-03T05:28:25.428Z,52.75
2022-08-03T05:30:52.127Z,53.01
2022-08-03T05:33:19.170Z,52.80
2022-08-03T05:36:00.745Z,52.85
2022-08-03T05:38:34.879Z,53.10
2022-08-03T05:41:20.578Z,55.24
2022-08-03T05:43:49.698Z,53.35
2022-08-03T05:46:16.489Z,52.30
2022-08-03T05:48:43.665Z,51.88
2022-08-03T05:51:11.885Z,52.12
2022-08-03T05:53:39.926Z,52.26
2022-08-03T05:56:13.731Z,52.11
2022-08-03T05:58:42.260Z,52.42
2022-08-03T06:01:09.066Z,52.13
2022-08-03T06:03:36.114Z,51.42
2022-08-03T06:06:02.965Z,52.13
2022-08-03T06:08:29.892Z,51.75
2022-08-03T06:10:56.843Z,52.28
2022-08-03T06:13:25.970Z,51.19
2022-08-03T06:15:52.657Z,51.55
2022-08-03T06:18:20.105Z,51.19
2022-08-03T06:20:47.196Z,50.82
2022-08-03T06:23:17.814Z,49.96
2022-08-03T06:25:45.194Z,50.29
2022-08-03T06:28:35.180Z,49.89
2022-08-03T06:31:02.903Z,48.92
2022-08-03T06:34:30.096Z,49.65
2022-08-03T06:36:17.299Z,48.68
2022-08-03T06:38:44.134Z,47.73
2022-08-03T06:41:10.934Z,46.58
2022-08-03T06:44:02.913Z,45.92
2022-08-03T06:46:24.802Z,45.64
2022-08-03T06:48:53.240Z,44.76
2022-08-03T06:51:20.037Z,43.28
2022-08-03T06:53:46.755Z,42.32
2022-08-03T06:56:13.712Z,42.55
2022-08-03T06:58:40.509Z,40.94
2022-08-03T07:01:07.282Z,40.21
2022-08-03T07:03:34.310Z,39.66
2022-08-03T07:06:02.288Z,40.23
2022-08-03T07:08:33.461Z,38.46
2022-08-03T07:11:01.710Z,38.57
2022-08-03T07:13:28.412Z,38.79
2022-08-03T07:15:56.412Z,38.79
2022-08-03T07:18:29.399Z,37.78
2022-08-03T07:20:57.492Z,36.32
2022-08-03T07:23:25.528Z,35.89
2022-08-03T07:25:53.323Z,36.68
2022-08-03T07:28:20.362Z,35.71
2022-08-03T07:30:47.607Z,36.41
2022-08-03T07:33:15.263Z,36.11
2022-08-03T07:35:42.105Z,35.97
2022-08-03T07:38:09.814Z,36.38
2022-08-03T07:40:36.680Z,35.27
2022-08-03T07:43:03.968Z,35.61
2022-08-03T07:45:31.392Z,36.01
2022-08-03T07:47:58.102Z,35.34
2022-08-03T07:50:25.781Z,34.69
2022-08-03T07:52:54.042Z,34.38
2022-08-03T07:55:21.613Z,33.47
2022-08-03T07:57:58.915Z,33.68
2022-08-03T08:00:26.317Z,33.89
2022-08-03T08:02:53.289Z,34.58
2022-08-03T08:05:20.592Z,33.45
2022-08-03T08:07:51.127Z,32.55
2022-08-03T08:10:18.871Z,32.89
2022-08-03T08:12:53.469Z,33.95
2022-08-03T08:15:24.958Z,33.89
2022-08-03T08:17:54.000Z,31.96
2022-08-03T08:20:27.035Z,32.17
2022-08-03T08:22:57.025Z,32.05
2022-08-03T08:25:25.095Z,30.80
2022-08-03T08:28:31.105Z,31.00
2022-08-03T08:30:40.412Z,31.55
2022-08-03T08:33:08.648Z,31.12
2022-08-03T08:35:37.915Z,31.74
2022-08-03T08:38:06.559Z,31.75
2022-08-03T08:40:33.866Z,30.33
2022-08-03T08:43:00.713Z,30.94
2022-08-03T08:45:28.360Z,30.51
2022-08-03T08:48:00.341Z,30.60
2022-08-03T08:50:28.869Z,31.68
2022-08-03T08:52:55.763Z,30.53
2022-08-03T08:55:23.398Z,30.41
2022-08-03T08:57:52.792Z,31.67
2022-08-03T09:00:19.916Z,29.93
2022-08-03T09:02:47.035Z,29.50
2022-08-03T09:05:14.810Z,30.27
2022-08-03T09:07:41.873Z,30.49
2022-08-03T09:10:12.921Z,30.67
2022-08-03T09:12:44.234Z,29.64
2022-08-03T09:15:17.583Z,29.57
2022-08-03T09:17:47.649Z,29.47
2022-08-03T09:20:18.126Z,28.60
2022-08-03T09:22:53.564Z,29.36
2022-08-03T09:25:24.960Z,27.24
2022-08-03T09:27:52.422Z,28.65
2022-08-03T09:30:34.549Z,29.33
2022-08-03T09:33:02.934Z,30.08
2022-08-03T09:35:53.517Z,28.47
2022-08-03T09:38:18.878Z,30.48
2022-08-03T09:40:46.192Z,29.40
2022-08-03T09:43:13.941Z,29.12
2022-08-03T09:45:41.050Z,27.25
2022-08-03T09:48:21.155Z,27.41
2022-08-03T09:50:58.487Z,26.82
2022-08-03T09:53:58.620Z,29.00
2022-08-03T09:56:43.049Z,25.97
2022-08-03T09:59:14.119Z,27.07
2022-08-03T10:01:41.925Z,28.62
2022-08-03T10:04:11.745Z,29.46
2022-08-03T10:06:39.206Z,27.84
2022-08-03T10:09:10.375Z,27.37
2022-08-03T10:11:41.802Z,26.89
2022-08-03T10:14:10.096Z,27.26
2022-08-03T10:16:38.705Z,28.59
2022-08-03T10:19:06.436Z,26.88
2022-08-03T10:21:36.582Z,27.78
2022-08-03T10:24:05.111Z,27.37
2022-08-03T10:26:33.533Z,26.53
2022-08-03T10:29:01.467Z,26.71
2022-08-03T10:31:31.637Z,24.96
2022-08-03T10:33:58.357Z,26.70
2022-08-03T10:36:25.645Z,26.09
2022-08-03T10:38:53.694Z,27.94
2022-08-03T10:41:21.308Z,26.42
2022-08-03T10:43:50.767Z,25.57
2022-08-03T10:46:18.218Z,25.17
2022-08-03T10:48:45.252Z,27.18
2022-08-03T10:51:12.121Z,27.03
2022-08-03T10:53:40.505Z,26.18
2022-08-03T10:56:49.859Z,25.91
2022-08-03T10:59:27.717Z,24.12
2022-08-03T11:01:58.697Z,25.57
2022-08-03T11:04:30.015Z,23.79
2022-08-03T11:07:16.127Z,25.28
2022-08-03T11:09:49.906Z,26.37
2022-08-03T11:12:30.393Z,25.45
2022-08-03T11:15:04.426Z,24.56
2022-08-03T11:17:31.881Z,23.85
2022-08-03T11:19:58.811Z,25.13
2022-08-03T11:22:28.259Z,25.09
2022-08-03T11:24:56.365Z,24.34
2022-08-03T11:27:23.841Z,25.26
2022-08-03T11:30:07.297Z,24.59
2022-08-03T11:32:37.247Z,24.66
2022-08-03T11:35:11.400Z,22.37
2022-08-03T11:38:03.325Z,23.66
2022-08-03T11:40:35.655Z,22.41
2022-08-03T11:43:02.973Z,24.31
2022-08-03T11:45:29.812Z,23.82
2022-08-03T11:48:00.753Z,22.96
2022-08-03T11:50:27.876Z,22.95
2022-08-03T11:52:54.937Z,24.12
2022-08-03T11:55:22.355Z,23.46
2022-08-03T11:59:12.893Z,25.67
2022-08-03T12:00:36.938Z,26.19
2022-08-03T12:03:04.216Z,25.87
2022-08-03T12:05:34.014Z,25.21
2022-08-03T12:08:03.555Z,25.34
2022-08-03T12:10:33.521Z,24.59
2022-08-03T12:13:01.680Z,25.01
2022-08-03T12:15:29.297Z,24.78
2022-08-03T12:17:58.032Z,24.87
2022-08-03T12:20:34.754Z,23.71
2022-08-03T12:23:03.295Z,24.43
2022-08-03T12:25:39.616Z,25.38
2022-08-03T12:28:37.194Z,24.89
2022-08-03T12:31:01.029Z,26.51
2022-08-03T12:33:29.165Z,26.18
2022-08-03T12:36:07.207Z,25.87
2022-08-03T12:38:36.432Z,26.16
2022-08-03T12:41:08.563Z,27.15
2022-08-03T12:43:39.571Z,25.53
2022-08-03T12:46:10.643Z,24.41
2022-08-03T12:48:37.879Z,26.26
2022-08-03T12:51:08.522Z,27.10
2022-08-03T12:53:35.545Z,25.64
2022-08-03T12:56:05.926Z,26.57
2022-08-03T12:58:35.795Z,23.84
2022-08-03T13:01:09.856Z,24.88
2022-08-03T13:03:42.057Z,25.87
2022-08-03T13:06:14.222Z,23.70
2022-08-03T13:08:41.379Z,24.06
2022-08-03T13:11:53.568Z,25.14
2022-08-03T13:14:19.797Z,24.21
2022-08-03T13:16:48.035Z,22.80
2022-08-03T13:19:16.145Z,22.87
2022-08-03T13:21:53.739Z,23.70
2022-08-03T13:24:31.892Z,23.80
2022-08-03T13:26:59.338Z,22.57
2022-08-03T13:29:26.108Z,22.67
2022-08-03T13:31:53.112Z,21.66
2022-08-03T13:34:23.454Z,22.97
2022-08-03T13:37:09.394Z,23.50
2022-08-03T13:39:57.457Z,23.21
2022-08-03T13:42:30.966Z,22.01
2022-08-03T13:44:58.667Z,21.87
2022-08-03T13:47:25.601Z,22.41
2022-08-03T13:50:00.156Z,22.36
2022-08-03T13:52:31.485Z,21.81
2022-08-03T13:54:58.823Z,22.35
2022-08-03T13:58:02.774Z,22.83
2022-08-03T14:00:12.860Z,22.47
2022-08-03T14:02:47.889Z,23.40
2022-08-03T14:05:14.658Z,23.25
2022-08-03T14:07:41.369Z,22.47
2022-08-03T14:10:08.853Z,22.50
2022-08-03T14:12:36.412Z,22.85
2022-08-03T14:15:04.336Z,22.83
2022-08-03T14:17:42.284Z,22.27
2022-08-03T14:20:36.933Z,22.26
2022-08-03T14:23:04.169Z,22.75
2022-08-03T14:25:43.172Z,23.27
2022-08-03T14:28:17.382Z,23.56
2022-08-03T14:30:45.122Z,23.81
2022-08-03T14:33:11.920Z,23.97
2022-08-03T14:35:39.186Z,23.58
2022-08-03T14:38:06.703Z,23.90
2022-08-03T14:40:36.183Z,23.69
2022-08-03T14:43:06.235Z,25.41
2022-08-03T14:45:34.401Z,25.61
2022-08-03T14:50:29.392Z,27.16
2022-08-03T14:50:55.325Z,28.01
2022-08-03T14:53:23.005Z,25.67
2022-08-03T14:55:51.915Z,25.17
2022-08-03T14:58:20.954Z,26.08
2022-08-03T15:00:49.056Z,24.68
2022-08-03T15:03:17.265Z,25.08
2022-08-03T15:05:44.919Z,24.04
2022-08-03T15:08:11.966Z,24.98
2022-08-03T15:10:43.821Z,25.83
2022-08-03T15:13:13.052Z,24.34
2022-08-03T15:15:39.968Z,24.81
2022-08-03T15:18:06.872Z,25.58
2022-08-03T15:20:43.983Z,26.17
2022-08-03T15:23:12.374Z,27.18
2022-08-03T15:26:28.329Z,27.61
2022-08-03T15:28:26.175Z,26.25
2022-08-03T15:30:54.376Z,25.78
2022-08-03T15:33:21.346Z,25.75
2022-08-03T15:35:49.923Z,26.07
2022-08-03T15:38:17.386Z,25.89
2022-08-03T15:40:44.150Z,26.39
2022-08-03T15:43:10.849Z,26.84
2022-08-03T15:45:37.980Z,25.94
2022-08-03T15:48:05.489Z,27.42
2022-08-03T15:50:32.195Z,27.19
2022-08-03T15:52:59.162Z,27.17
2022-08-03T15:55:25.941Z,27.11
2022-08-03T15:59:04.533Z,25.36
2022-08-03T16:00:40.396Z,25.48
2022-08-03T16:03:07.556Z,25.96
2022-08-03T16:05:34.339Z,26.42
2022-08-03T16:08:03.752Z,26.82
2022-08-03T16:10:31.399Z,26.08
2022-08-03T16:13:00.912Z,26.54
2022-08-03T16:15:27.696Z,25.45
2022-08-03T16:17:55.733Z,27.03
2022-08-03T16:20:29.222Z,26.97
2022-08-03T16:23:08.482Z,26.84
2022-08-03T16:25:41.886Z,25.90
2022-08-03T16:28:14.006Z,26.52
2022-08-03T16:30:44.228Z,26.29
2022-08-03T16:33:17.319Z,25.92
2022-08-03T16:35:45.479Z,26.44
2022-08-03T16:38:18.214Z,26.09
2022-08-03T16:40:47.162Z,26.47
2022-08-03T16:43:17.857Z,26.90
2022-08-03T16:45:46.576Z,26.97
2022-08-03T16:48:14.011Z,26.38
2022-08-03T16:50:41.790Z,27.44
2022-08-03T16:53:09.599Z,27.42
2022-08-03T16:55:43.216Z,27.54
2022-08-03T16:58:24.317Z,27.61
2022-08-03T17:01:01.041Z,27.90
2022-08-03T17:03:42.738Z,27.75
2022-08-03T17:06:26.501Z,28.18
2022-08-03T17:09:02.166Z,28.62
2022-08-03T17:11:32.949Z,28.73
2022-08-03T17:13:59.810Z,29.23
2022-08-03T17:16:26.884Z,27.77
2022-08-03T17:19:02.128Z,28.31
2022-08-03T17:21:39.529Z,28.85
2022-08-03T17:24:12.619Z,29.04
2022-08-03T17:26:46.222Z,29.27
2022-08-03T17:29:23.118Z,29.80
2022-08-03T17:31:52.192Z,29.87
2022-08-03T17:34:19.958Z,29.79
2022-08-03T17:37:03.787Z,30.28
2022-08-03T17:39:57.033Z,30.38
2022-08-03T17:42:38.790Z,30.41
2022-08-03T17:45:06.773Z,30.69
2022-08-03T17:47:42.714Z,31.72
2022-08-03T17:50:24.047Z,31.90
2022-08-03T17:52:52.117Z,31.91
2022-08-03T17:58:12.177Z,32.04
2022-08-03T18:01:01.706Z,32.46
2022-08-03T18:03:58.679Z,32.99
2022-08-03T18:06:28.989Z,32.81
2022-08-03T18:08:56.516Z,32.90
2022-08-03T18:11:41.858Z,33.96
2022-08-03T18:14:17.345Z,34.15
2022-08-03T18:16:44.906Z,35.02
2022-08-03T18:19:15.487Z,35.72
2022-08-03T18:22:03.657Z,36.36
2022-08-03T18:24:33.320Z,36.02
2022-08-03T18:27:02.489Z,35.53
2022-08-03T18:29:30.470Z,36.12
2022-08-03T18:32:02.265Z,36.82
2022-08-03T18:34:33.297Z,36.04
2022-08-03T18:37:07.380Z,36.34
2022-08-03T18:39:49.661Z,37.03
2022-08-03T18:42:25.613Z,37.55
2022-08-03T18:44:56.223Z,38.10
2022-08-03T18:47:52.282Z,38.60
2022-08-03T18:50:49.770Z,37.81
2022-08-03T18:53:19.716Z,38.12
2022-08-03T18:56:01.603Z,37.93
2022-08-03T18:58:40.396Z,38.11
2022-08-03T19:01:15.247Z,38.15
2022-08-03T19:04:06.518Z,39.08
2022-08-03T19:06:33.566Z,39.83
2022-08-03T19:09:04.620Z,39.77
2022-08-03T19:12:14.560Z,38.96
2022-08-03T19:14:28.817Z,38.74
2022-08-03T19:16:59.666Z,38.10
2022-08-03T19:19:28.648Z,38.03
2022-08-03T19:22:11.891Z,36.00
2022-08-03T19:24:43.651Z,36.14
2022-08-03T19:27:10.835Z,37.09
2022-08-03T19:29:59.387Z,37.33
2022-08-03T19:32:26.914Z,37.33
2022-08-03T19:34:53.843Z,37.88
2022-08-03T19:37:23.388Z,38.27
2022-08-03T19:39:56.514Z,37.06
2022-08-03T19:42:34.139Z,37.11
2022-08-03T19:45:11.344Z,37.44
2022-08-03T19:47:45.645Z,37.10
2022-08-03T19:50:14.107Z,38.57
2022-08-03T19:52:44.125Z,38.54
2022-08-03T19:55:12.105Z,38.14
2022-08-03T19:57:41.120Z,37.90
2022-08-03T20:00:11.949Z,37.54
2022-08-03T20:02:40.046Z,37.41
2022-08-03T20:05:14.958Z,37.10
2022-08-03T20:07:47.720Z,37.40
2022-08-03T20:10:16.181Z,37.75
2022-08-03T20:12:44.436Z,38.00
2022-08-03T20:15:11.779Z,38.08
2022-08-03T20:17:54.384Z,38.33
2022-08-03T20:20:28.614Z,38.83
2022-08-03T20:22:57.592Z,39.65
2022-08-03T20:25:38.027Z,39.82
2022-08-03T20:28:13.446Z,40.04
2022-08-03T20:30:43.308Z,40.12
2022-08-03T20:33:10.305Z,40.09
2022-08-03T20:35:37.042Z,40.21
2022-08-03T20:38:04.167Z,40.58
2022-08-03T20:40:31.717Z,40.43
2022-08-03T20:42:59.786Z,41.12
2022-08-03T20:46:01.044Z,40.99
2022-08-03T20:51:05.101Z,41.62
2022-08-03T20:53:56.975Z,42.57
2022-08-03T20:56:29.717Z,41.56
2022-08-03T20:58:56.477Z,41.36
2022-08-03T21:01:27.934Z,41.08
2022-08-03T21:04:07.450Z,41.13
2022-08-03T21:06:38.782Z,40.93
2022-08-03T21:09:07.984Z,40.44
2022-08-03T21:11:42.179Z,40.97
2022-08-03T21:12:55.766Z,31.14
2022-08-03T21:13:07.506Z,41.56
2022-08-03T21:14:16.371Z,41.41
2022-08-03T21:16:43.860Z,41.93
2022-08-03T21:19:10.924Z,41.39
2022-08-03T21:21:38.651Z,40.67
2022-08-03T21:24:05.845Z,39.20
2022-08-03T21:26:33.873Z,40.13
2022-08-03T21:29:02.379Z,40.67
2022-08-03T21:31:29.155Z,39.26
2022-08-03T21:33:56.941Z,40.01
2022-08-03T21:36:24.625Z,40.36
2022-08-03T21:38:56.666Z,40.46
2022-08-03T21:41:27.943Z,40.77
2022-08-03T21:43:54.717Z,40.99
2022-08-03T21:46:21.466Z,40.34
2022-08-03T21:48:48.742Z,39.71
2022-08-03T21:51:16.130Z,40.12
2022-08-03T21:54:02.913Z,40.40
2022-08-03T21:56:31.577Z,40.16
2022-08-03T21:59:05.081Z,40.88
2022-08-03T22:01:35.415Z,41.38
2022-08-03T22:04:05.098Z,41.82
2022-08-03T22:06:33.714Z,40.70
2022-08-03T22:09:00.518Z,40.93
2022-08-03T22:11:27.525Z,40.24
2022-08-03T22:13:54.455Z,42.14
2022-08-03T22:16:21.156Z,41.84
2022-08-03T22:18:48.135Z,41.22
2022-08-03T22:21:15.831Z,42.11
2022-08-03T22:23:47.173Z,42.15
2022-08-03T22:26:17.990Z,41.82
2022-08-03T22:29:01.852Z,41.36
2022-08-03T22:31:57.018Z,41.07
2022-08-03T22:34:15.679Z,41.77
2022-08-03T22:36:43.153Z,41.01
2022-08-03T22:39:09.953Z,41.32
2022-08-03T22:41:37.078Z,41.19
2022-08-03T22:44:04.728Z,41.98
2022-08-03T22:46:32.350Z,41.34
2022-08-03T22:48:59.162Z,41.26
2022-08-03T22:51:26.145Z,41.46
2022-08-03T22:53:52.858Z,40.29
2022-08-03T22:56:20.611Z,40.77
2022-08-03T22:58:47.675Z,41.23
2022-08-03T23:01:14.498Z,41.11
2022-08-03T23:04:00.382Z,40.73
2022-08-03T23:06:31.796Z,42.12
2022-08-03T23:08:58.538Z,41.08
2022-08-03T23:11:26.311Z,40.68
2022-08-03T23:13:54.180Z,40.33
2022-08-03T23:16:28.722Z,40.86
2022-08-03T23:18:58.859Z,41.77
2022-08-03T23:21:51.250Z,41.75
2022-08-03T23:24:29.836Z,41.05
2022-08-03T23:26:57.983Z,41.67
2022-08-03T23:29:25.123Z,41.11
2022-08-03T23:31:51.898Z,41.86
2022-08-03T23:34:37.787Z,42.62
2022-08-03T23:37:04.777Z,42.10
2022-08-03T23:39:35.222Z,41.01
2022-08-03T23:42:03.030Z,41.53
2022-08-03T23:44:31.347Z,42.71
2022-08-03T23:46:58.410Z,41.77
2022-08-03T23:49:25.334Z,41.38
2022-08-03T23:51:53.198Z,41.17
2022-08-03T23:54:27.034Z,41.52
2022-08-03T23:56:55.381Z,40.37
2022-08-03T23:59:22.073Z,40.51
